Time;durP1;ratioP1;P1;durP2;ratioP2;P2;SDS_P1;SDS_P2;PMS_P1;PMS_P2;Temp;Humidity;BMP_temperature;BMP_pressure;BME280_temperature;BME280_humidity;BME280_pressure;Samples;Min_cycle;Max_cycle;Signal;HPM_P1;HPM_P2
2022/10/21 00:03:09;;;;;;;20.23;12.97;;;14.50;99.90;;;;;;21085918;28;20271;-66
2022/10/21 00:13:11;;;;;;;19.63;13.67;;;14.60;99.90;;;;;;21085670;28;20633;-63
2022/10/21 00:23:13;;;;;;;16.93;13.43;;;14.60;99.90;;;;;;21084343;28;20288;-63
2022/10/21 00:33:14;;;;;;;23.10;13.90;;;14.60;99.90;;;;;;21083444;28;20207;-63
2022/10/21 00:43:16;;;;;;;18.40;13.63;;;14.60;99.90;;;;;;21082074;28;20265;-63
2022/10/21 00:53:18;;;;;;;22.30;13.67;;;14.50;99.90;;;;;;21081846;28;20700;-64
2022/10/21 01:03:21;;;;;;;21.03;14.50;;;14.50;99.90;;;;;;21081138;28;20241;-63
2022/10/21 01:13:49;;;;;;;23.43;13.60;;;14.50;99.90;;;;;;21080839;28;20218;-63
2022/10/21 01:23:54;;;;;;;20.10;14.03;;;14.50;99.90;;;;;;21079932;28;20269;-62
2022/10/21 01:34:27;;;;;;;21.50;14.43;;;14.50;99.90;;;;;;21079202;28;20265;-63
2022/10/21 01:44:44;;;;;;;18.43;14.00;;;14.40;99.90;;;;;;21078801;28;20314;-63
2022/10/21 01:54:56;;;;;;;19.17;13.47;;;14.40;99.90;;;;;;21086128;28;20232;-64
2022/10/21 02:05:03;;;;;;;20.87;13.47;;;14.40;99.90;;;;;;21095748;28;20602;-63
2022/10/21 02:15:07;;;;;;;16.83;13.17;;;14.30;99.90;;;;;;21095003;28;20215;-62
2022/10/21 02:25:18;;;;;;;22.87;13.20;;;14.30;99.90;;;;;;21093607;28;20775;-63
2022/10/21 02:35:45;;;;;;;18.33;12.17;;;14.30;99.90;;;;;;21092935;28;20260;-63
2022/10/21 02:45:47;;;;;;;16.80;12.40;;;14.30;99.90;;;;;;21092611;28;20218;-63
2022/10/21 02:55:49;;;;;;;22.53;12.00;;;14.10;99.90;;;;;;21089533;28;20226;-66
2022/10/21 03:05:51;;;;;;;17.97;12.57;;;14.10;99.90;;;;;;21088147;28;20238;-64
2022/10/21 03:15:52;;;;;;;22.80;13.53;;;14.00;99.90;;;;;;21090060;28;20234;-64
2022/10/21 03:25:54;;;;;;;19.87;12.43;;;14.00;99.90;;;;;;21088805;28;20213;-64
2022/10/21 03:35:56;;;;;;;19.63;12.60;;;13.80;99.90;;;;;;21087468;28;20269;-64
2022/10/21 03:45:58;;;;;;;16.83;11.47;;;13.70;99.90;;;;;;21087669;28;20210;-64
2022/10/21 03:56:00;;;;;;;20.40;11.57;;;13.60;99.90;;;;;;21086588;28;20243;-63
2022/10/21 04:06:01;;;;;;;18.80;12.00;;;13.60;99.90;;;;;;21085641;28;20241;-65
2022/10/21 04:16:06;;;;;;;21.07;12.93;;;13.60;99.90;;;;;;21083683;28;20229;-63
2022/10/21 04:26:08;;;;;;;16.60;12.30;;;13.40;99.90;;;;;;21083247;28;20203;-64
2022/10/21 04:36:09;;;;;;;22.33;12.23;;;13.40;99.90;;;;;;21082813;28;20664;-64
2022/10/21 04:46:15;;;;;;;23.20;12.67;;;13.30;99.90;;;;;;21082355;28;20570;-64
2022/10/21 04:56:17;;;;;;;23.40;11.50;;;13.20;99.90;;;;;;21082841;28;20227;-65
2022/10/21 05:06:19;;;;;;;19.37;12.10;;;13.20;99.90;;;;;;21079138;28;20540;-65
2022/10/21 05:16:22;;;;;;;16.30;12.10;;;13.20;99.90;;;;;;21080359;28;20602;-67
2022/10/21 05:26:24;;;;;;;23.97;12.97;;;13.20;99.90;;;;;;21073079;28;20210;-69
2022/10/21 05:36:26;;;;;;;24.83;12.10;;;13.20;99.90;;;;;;21078281;28;20283;-66
2022/10/21 05:46:28;;;;;;;24.07;13.20;;;13.30;99.90;;;;;;21073310;28;20257;-65
2022/10/21 05:56:30;;;;;;;22.00;13.60;;;13.30;99.90;;;;;;21076562;28;20226;-63
2022/10/21 06:06:32;;;;;;;17.37;12.63;;;13.30;99.90;;;;;;21075638;28;20214;-64
2022/10/21 06:16:34;;;;;;;15.93;12.57;;;13.40;99.90;;;;;;21076776;28;20232;-64
2022/10/21 06:26:36;;;;;;;25.67;13.30;;;13.40;99.90;;;;;;21075756;28;20243;-63
2022/10/21 06:36:37;;;;;;;19.70;12.60;;;13.50;99.90;;;;;;21073898;28;20245;-64
2022/10/21 06:46:39;;;;;;;22.30;12.20;;;13.40;99.90;;;;;;21090425;28;20215;-63
2022/10/21 06:56:40;;;;;;;16.37;11.73;;;13.50;99.90;;;;;;21090414;28;20234;-64
2022/10/21 07:06:44;;;;;;;16.57;11.27;;;13.60;99.90;;;;;;21087558;28;20198;-66
2022/10/21 07:16:46;;;;;;;21.77;12.40;;;13.60;99.90;;;;;;21088220;28;20230;-68
2022/10/21 07:26:49;;;;;;;22.57;15.67;;;13.70;99.90;;;;;;21088274;28;20211;-64
2022/10/21 07:36:53;;;;;;;25.50;15.97;;;13.70;99.90;;;;;;21087404;28;20286;-67
2022/10/21 07:46:55;;;;;;;26.87;15.27;;;13.80;99.90;;;;;;21083209;28;20209;-68
2022/10/21 07:56:57;;;;;;;26.37;14.67;;;13.70;99.90;;;;;;21084065;28;20281;-67
2022/10/21 08:06:59;;;;;;;23.80;13.63;;;13.60;99.90;;;;;;21084496;28;20262;-68
2022/10/21 08:17:00;;;;;;;17.63;13.90;;;13.70;99.90;;;;;;21082899;28;20297;-65
2022/10/21 08:27:04;;;;;;;17.97;13.60;;;13.70;99.90;;;;;;21083276;28;20210;-69
2022/10/21 08:37:06;;;;;;;25.97;14.10;;;13.80;99.90;;;;;;21081847;28;20236;-68
2022/10/21 08:47:31;;;;;;;24.37;14.40;;;13.90;99.90;;;;;;21081121;28;20209;-69
2022/10/21 08:57:34;;;;;;;22.27;14.87;;;13.90;99.90;;;;;;21079940;28;20265;-68
2022/10/21 09:08:04;;;;;;;20.80;15.20;;;14.00;99.90;;;;;;21078489;28;20260;-67
2022/10/21 09:18:25;;;;;;;21.57;14.70;;;14.20;99.90;;;;;;21078989;28;20618;-66
2022/10/21 09:28:29;;;;;;;19.70;14.20;;;14.30;99.90;;;;;;21078677;28;20206;-67
2022/10/21 09:38:43;;;;;;;22.27;14.90;;;14.30;99.90;;;;;;21077745;28;20240;-68
2022/10/21 09:48:51;;;;;;;21.70;15.73;;;14.30;99.90;;;;;;21078018;28;20206;-68
2022/10/21 09:59:15;;;;;;;25.30;17.57;;;14.40;99.90;;;;;;21078902;28;20690;-69
2022/10/21 10:09:35;;;;;;;24.17;16.63;;;14.30;99.90;;;;;;21077426;28;20571;-67
2022/10/21 10:19:37;;;;;;;32.67;21.47;;;14.30;99.90;;;;;;21090938;28;20230;-68
2022/10/21 10:29:40;;;;;;;31.93;21.17;;;14.40;99.90;;;;;;21093204;28;20235;-68
2022/10/21 10:39:46;;;;;;;34.43;22.03;;;14.50;99.90;;;;;;21091494;28;20246;-67
2022/10/21 10:49:49;;;;;;;24.07;15.77;;;14.60;99.90;;;;;;21091056;28;20206;-68
2022/10/21 11:00:14;;;;;;;23.43;15.63;;;14.80;99.90;;;;;;21085777;28;20238;-69
2022/10/21 11:10:52;;;;;;;22.13;14.13;;;14.80;99.90;;;;;;21086136;28;20202;-69
2022/10/21 11:21:32;;;;;;;16.73;12.50;;;15.00;99.90;;;;;;21087168;28;20236;-78
2022/10/21 11:31:48;;;;;;;18.97;13.30;;;15.20;99.90;;;;;;21084112;28;20683;-75
2022/10/21 11:42:30;;;;;;;19.63;11.83;;;15.30;99.90;;;;;;21085589;28;20253;-71
2022/10/21 11:52:32;;;;;;;16.70;10.53;;;15.60;99.90;;;;;;21083694;28;20207;-72
2022/10/21 12:03:00;;;;;;;10.77;6.90;;;15.90;99.90;;;;;;21084657;28;20701;-73
2022/10/21 12:13:19;;;;;;;3.63;2.00;;;16.00;99.90;;;;;;21053097;28;20268;-71
2022/10/21 12:23:25;;;;;;;3.80;1.50;;;16.30;99.90;;;;;;21082528;28;20231;-68
2022/10/21 12:33:40;;;;;;;2.57;1.53;;;16.50;99.90;;;;;;21082386;28;20612;-72
2022/10/21 12:44:00;;;;;;;4.40;1.90;;;16.70;99.90;;;;;;21080943;28;20269;-72
2022/10/21 12:54:01;;;;;;;5.23;2.30;;;16.90;99.90;;;;;;21081305;28;20212;-71
2022/10/21 13:04:04;;;;;;;14.93;11.50;;;17.20;99.90;;;;;;21070791;28;20578;-70
2022/10/21 13:14:18;;;;;;;3.90;1.60;;;17.30;99.90;;;;;;21081678;28;20214;-72
2022/10/21 13:24:22;;;;;;;2.90;1.90;;;17.30;99.90;;;;;;21085881;28;20723;-69
2022/10/21 13:34:28;;;;;;;3.00;1.97;;;17.30;99.90;;;;;;21085667;28;20231;-67
2022/10/21 13:44:37;;;;;;;3.83;2.50;;;17.30;99.90;;;;;;21137083;28;20231;-67
2022/10/21 13:54:38;;;;;;;9.63;2.63;;;17.30;99.90;;;;;;21132400;28;20200;-71
2022/10/21 14:04:41;;;;;;;7.20;2.17;;;17.40;99.90;;;;;;21073283;28;20703;-71
2022/10/21 14:14:43;;;;;;;4.33;1.70;;;17.50;99.90;;;;;;21076568;28;20205;-67
2022/10/21 14:24:47;;;;;;;2.47;1.60;;;17.60;99.90;;;;;;21069605;28;20324;-68
2022/10/21 14:34:55;;;;;;;4.00;1.77;;;17.60;99.90;;;;;;21071704;28;20246;-69
2022/10/21 14:45:02;;;;;;;4.53;1.90;;;17.70;99.90;;;;;;21073767;28;20270;-68
2022/10/21 14:55:12;;;;;;;2.27;1.40;;;17.60;99.90;;;;;;21072909;28;20213;-68
2022/10/21 15:05:28;;;;;;;3.33;2.10;;;17.50;99.90;;;;;;21082911;28;20280;-68
2022/10/21 15:15:43;;;;;;;4.03;2.20;;;17.40;99.90;;;;;;21086090;28;20799;-68
2022/10/21 15:25:59;;;;;;;8.80;2.80;;;17.40;99.90;;;;;;21085134;28;20300;-68
2022/10/21 15:36:08;;;;;;;5.47;2.40;;;17.30;99.90;;;;;;21085244;28;20722;-69
2022/10/21 15:46:10;;;;;;;6.53;3.30;;;17.10;99.90;;;;;;21086092;28;20267;-68
2022/10/21 15:56:13;;;;;;;6.17;2.90;;;17.10;99.90;;;;;;21083557;28;20647;-69
2022/10/21 16:06:18;;;;;;;6.60;2.93;;;17.00;99.90;;;;;;21083416;28;20243;-69
2022/10/21 16:16:23;;;;;;;17.53;7.10;;;16.80;99.90;;;;;;21084337;28;20205;-72
2022/10/21 16:26:27;;;;;;;7.17;3.00;;;16.70;99.90;;;;;;21082612;28;20257;-67
2022/10/21 16:36:31;;;;;;;8.63;3.40;;;16.60;99.90;;;;;;21081220;28;20587;-69
2022/10/21 16:46:39;;;;;;;6.67;3.77;;;16.50;99.90;;;;;;21082483;28;20322;-68
2022/10/21 16:56:41;;;;;;;9.30;5.10;;;16.50;99.90;;;;;;21081126;28;20199;-70
2022/10/21 17:06:45;;;;;;;10.57;6.20;;;16.40;99.90;;;;;;21081056;28;20640;-64
2022/10/21 17:16:47;;;;;;;8.27;5.43;;;16.40;99.90;;;;;;21080476;28;20203;-65
2022/10/21 17:26:49;;;;;;;7.37;5.63;;;16.30;99.90;;;;;;21076076;28;20932;-66
2022/10/21 17:36:50;;;;;;;7.87;5.77;;;16.60;99.90;;;;;;21078956;28;20230;-65
2022/10/21 17:46:53;;;;;;;10.40;6.70;;;16.10;99.90;;;;;;21078708;28;20221;-69
2022/10/21 17:56:55;;;;;;;9.53;6.70;;;16.10;99.90;;;;;;21078578;28;20270;-69
2022/10/21 18:06:57;;;;;;;13.20;7.40;;;15.90;99.90;;;;;;21077226;28;20236;-68
2022/10/21 18:16:59;;;;;;;13.27;8.73;;;15.80;99.90;;;;;;21077671;28;20202;-68
2022/10/21 18:27:00;;;;;;;14.27;8.23;;;15.70;99.90;;;;;;21075797;28;20244;-69
2022/10/21 18:37:02;;;;;;;9.77;7.37;;;15.70;99.90;;;;;;21081517;28;20246;-68
2022/10/21 18:47:04;;;;;;;13.87;7.73;;;15.60;99.90;;;;;;21092688;28;20258;-69
2022/10/21 18:57:08;;;;;;;12.63;7.87;;;15.60;99.90;;;;;;21091015;28;20210;-68
2022/10/21 19:07:10;;;;;;;13.57;8.90;;;15.40;99.90;;;;;;21088498;28;20211;-68
2022/10/21 19:17:11;;;;;;;18.93;10.73;;;15.30;99.90;;;;;;21087673;28;20207;-68
2022/10/21 19:27:13;;;;;;;14.90;9.87;;;15.30;99.90;;;;;;21087349;28;20206;-68
2022/10/21 19:37:15;;;;;;;17.53;9.07;;;15.30;99.90;;;;;;21085573;28;20226;-68
2022/10/21 19:47:16;;;;;;;15.10;8.87;;;15.30;99.90;;;;;;21084821;28;20264;-70
2022/10/21 19:57:18;;;;;;;13.70;9.37;;;15.20;99.90;;;;;;21085026;28;20203;-69
2022/10/21 20:07:20;;;;;;;15.47;9.43;;;15.10;99.90;;;;;;21083594;28;20608;-68
2022/10/21 20:17:22;;;;;;;13.00;9.37;;;15.10;99.90;;;;;;21082959;28;20758;-67
2022/10/21 20:27:24;;;;;;;18.80;10.30;;;15.00;99.90;;;;;;21080480;28;20657;-68
2022/10/21 20:37:25;;;;;;;17.13;9.83;;;15.00;99.90;;;;;;21078755;28;20667;-69
2022/10/21 20:47:27;;;;;;;15.03;9.87;;;15.00;99.90;;;;;;21080654;28;20199;-69
2022/10/21 20:57:31;;;;;;;18.43;9.30;;;15.00;99.90;;;;;;21079245;28;20218;-68
2022/10/21 21:07:33;;;;;;;17.77;10.50;;;15.00;99.90;;;;;;21079347;28;20203;-69
2022/10/21 21:17:34;;;;;;;15.87;9.73;;;15.00;99.90;;;;;;21077731;28;20218;-71
2022/10/21 21:27:36;;;;;;;17.27;10.60;;;14.80;99.90;;;;;;21078767;28;20246;-70
2022/10/21 21:37:38;;;;;;;17.77;11.23;;;14.80;99.90;;;;;;21076588;28;20281;-70
2022/10/21 21:47:39;;;;;;;18.30;10.20;;;14.80;99.90;;;;;;21078934;28;20260;-68
2022/10/21 21:57:41;;;;;;;16.53;10.40;;;14.70;99.90;;;;;;21079180;28;20231;-69
2022/10/21 22:07:43;;;;;;;19.67;10.30;;;14.60;99.90;;;;;;21079310;28;20218;-69
2022/10/21 22:17:44;;;;;;;24.93;12.23;;;14.70;99.90;;;;;;21095268;28;20226;-69
2022/10/21 22:27:46;;;;;;;64.37;15.47;;;14.70;99.90;;;;;;21092523;28;20259;-69
2022/10/21 22:37:47;;;;;;;30.80;13.33;;;14.70;99.90;;;;;;21090750;28;20274;-69
2022/10/21 22:47:49;;;;;;;12.30;8.33;;;14.70;99.90;;;;;;21092680;28;20207;-68
2022/10/21 22:57:51;;;;;;;12.87;5.27;;;14.70;99.90;;;;;;21092321;28;20230;-68
2022/10/21 23:07:52;;;;;;;8.90;5.97;;;14.70;99.90;;;;;;21091124;28;20207;-68
2022/10/21 23:17:55;;;;;;;8.37;5.67;;;14.60;99.90;;;;;;21090274;28;20707;-68
2022/10/21 23:27:57;;;;;;;11.83;6.47;;;14.70;99.90;;;;;;21089072;28;20214;-68
2022/10/21 23:37:59;;;;;;;12.63;6.33;;;14.70;99.90;;;;;;21088962;28;20268;-69
2022/10/21 23:48:01;;;;;;;17.97;8.47;;;14.60;99.90;;;;;;21087920;28;20279;-68
2022/10/21 23:58:02;;;;;;;11.57;7.73;;;14.60;99.90;;;;;;21087248;28;20236;-69
